N878SA KHND-KHND
Flight info
| Callsign | N878SA |
|---|---|
| Flight time | N/A |
| Altitude | VFR |
| Route | |
| Aircraft |
Departure
| Time | 2026-05-08 16:31 |
|---|---|
| Airport | Henderson Executive Airport (KHND) |
Arrival
| Time | N/A |
|---|---|
| Airport | Henderson Executive Airport (KHND) |
| Time | Latitude | Longitude | Altitude | Speed | Heading |
|---|---|---|---|---|---|
| 2026-05-08 16:31 | 35.93119 | -114.84664 | 5948 ft | 110 kts | 341° |
| 2026-05-08 16:31 | 35.93617 | -114.85348 | 5920 ft | 116 kts | 287° |
| 2026-05-08 16:31 | 35.93494 | -114.86302 | 5971 ft | 115 kts | 243° |
| 2026-05-08 16:31 | 35.92919 | -114.86989 | 5964 ft | 118 kts | 208° |
| 2026-05-08 16:32 | 35.92127 | -114.87183 | 5959 ft | 118 kts | 175° |
| 2026-05-08 16:32 | 35.91387 | -114.86779 | 5925 ft | 119 kts | 134° |
| 2026-05-08 16:32 | 35.91024 | -114.85916 | 5931 ft | 112 kts | 95° |
| 2026-05-08 16:32 | 35.91100 | -114.85001 | 5967 ft | 107 kts | 68° |
| 2026-05-08 16:33 | 35.91484 | -114.84236 | 6000 ft | 103 kts | 45° |
| 2026-05-08 16:33 | 35.92054 | -114.83726 | 6027 ft | 101 kts | 25° |
| 2026-05-08 16:33 | 35.92735 | -114.83428 | 5972 ft | 109 kts | 10° |
| 2026-05-08 16:33 | 35.93495 | -114.83353 | 5990 ft | 106 kts | 2° |
| 2026-05-08 16:34 | 35.94221 | -114.83372 | 5989 ft | 108 kts | 355° |
| 2026-05-08 16:34 | 35.94967 | -114.83624 | 5927 ft | 112 kts | 336° |
| 2026-05-08 16:34 | 35.95638 | -114.84111 | 5930 ft | 112 kts | 329° |
| 2026-05-08 16:34 | 35.96336 | -114.84562 | 5841 ft | 115 kts | 338° |
| 2026-05-08 16:35 | 35.97087 | -114.84899 | 5852 ft | 115 kts | 342° |
| 2026-05-08 16:35 | 35.97837 | -114.85177 | 5889 ft | 112 kts | 347° |
| 2026-05-08 16:35 | 35.98570 | -114.85331 | 5960 ft | 106 kts | 356° |
| 2026-05-08 16:35 | 35.99309 | -114.85396 | 5940 ft | 107 kts | 349° |
| 2026-05-08 16:36 | 35.99935 | -114.85855 | 5878 ft | 110 kts | 307° |
| 2026-05-08 16:36 | 36.00199 | -114.86766 | 5828 ft | 112 kts | 286° |
| 2026-05-08 16:36 | 36.00214 | -114.87736 | 5802 ft | 113 kts | 263° |
| 2026-05-08 16:36 | 35.99945 | -114.88608 | 5909 ft | 107 kts | 244° |
| 2026-05-08 16:37 | 35.99495 | -114.89385 | 5911 ft | 114 kts | 232° |
| 2026-05-08 16:37 | 35.99114 | -114.90192 | 6002 ft | 108 kts | 250° |
| 2026-05-08 16:37 | 35.98878 | -114.91073 | 5987 ft | 107 kts | 257° |
| 2026-05-08 16:37 | 35.98762 | -114.91988 | 5954 ft | 108 kts | 268° |
| 2026-05-08 16:38 | 35.98772 | -114.92910 | 5921 ft | 110 kts | 276° |
| 2026-05-08 16:38 | 35.98841 | -114.93844 | 5879 ft | 109 kts | 278° |
| 2026-05-08 16:38 | 35.98874 | -114.94787 | 5819 ft | 112 kts | 272° |
| 2026-05-08 16:38 | 35.98882 | -114.95764 | 5717 ft | 116 kts | 270° |
| 2026-05-08 16:39 | 35.98754 | -114.96739 | 5719 ft | 111 kts | 262° |
| 2026-05-08 16:39 | 35.98606 | -114.97677 | 5692 ft | 114 kts | 256° |
| 2026-05-08 16:39 | 35.98294 | -114.98565 | 5764 ft | 112 kts | 248° |
| 2026-05-08 16:39 | 35.98006 | -114.99490 | 5720 ft | 117 kts | 252° |
| 2026-05-08 16:40 | 35.97721 | -115.00442 | 5755 ft | 117 kts | 253° |
| 2026-05-08 16:40 | 35.97508 | -115.01394 | 5763 ft | 115 kts | 259° |
| 2026-05-08 16:40 | 35.97365 | -115.02370 | 5763 ft | 116 kts | 265° |
| 2026-05-08 16:40 | 35.97282 | -115.03366 | 5749 ft | 115 kts | 269° |
| 2026-05-08 16:41 | 35.97261 | -115.04327 | 5780 ft | 107 kts | 271° |
| 2026-05-08 16:41 | 35.97255 | -115.05185 | 5679 ft | 97 kts | 274° |
| 2026-05-08 16:41 | 35.97306 | -115.05979 | 5543 ft | 92 kts | 279° |
| 2026-05-08 16:42 | 35.97413 | -115.07609 | 5277 ft | 101 kts | 275° |
| 2026-05-08 16:42 | 35.97458 | -115.08497 | 5047 ft | 104 kts | 275° |
| 2026-05-08 16:42 | 35.97440 | -115.09380 | 4896 ft | 102 kts | 265° |
| 2026-05-08 16:42 | 35.97303 | -115.10250 | 4694 ft | 105 kts | 256° |
| 2026-05-08 16:43 | 35.97040 | -115.11073 | 4487 ft | 103 kts | 245° |
| 2026-05-08 16:43 | 35.96742 | -115.11839 | 4374 ft | 98 kts | 246° |